Time,TemperatureF,DewpointF,PressureIn,WindDirection,WindDirectionDegrees,WindSpeedMPH,WindSpeedGustMPH,Humidity,HourlyPrecipIn,Conditions,Clouds,dailyrainin,SoftwareType,DateUTC
2013-07-01 00:01:00,66.0,59.0,30.05,NNW,338,0.0,0.0,78,0.00,,---,0.19,VWS V14.01,2013-07-01 04:01:00,
2013-07-01 00:02:00,65.8,58.8,30.05,NNW,338,0.0,0.0,78,0.00,,---,0.00,VWS V14.01,2013-07-01 04:02:00,
2013-07-01 00:07:00,65.8,58.8,30.05,NNW,338,0.0,0.0,78,0.00,,---,0.00,VWS V14.01,2013-07-01 04:07:00,
2013-07-01 00:12:00,65.6,58.6,30.05,NNW,338,0.0,0.0,78,0.00,,---,0.00,VWS V14.01,2013-07-01 04:12:00,
2013-07-01 00:17:00,65.4,58.7,30.05,NNW,338,0.0,0.0,79,0.00,,---,0.00,VWS V14.01,2013-07-01 04:17:00,
2013-07-01 00:22:00,65.4,58.7,30.05,NNW,338,0.0,0.0,79,0.00,,---,0.00,VWS V14.01,2013-07-01 04:22:00,
2013-07-01 00:27:00,65.3,58.6,30.05,NNW,338,0.0,0.0,79,0.00,,---,0.00,VWS V14.01,2013-07-01 04:27:00,
2013-07-01 00:32:00,65.3,58.6,30.06,NNW,338,0.0,0.0,79,0.00,,---,0.00,VWS V14.01,2013-07-01 04:32:00,
2013-07-01 00:37:00,65.3,58.6,30.06,NNW,338,0.0,0.0,79,0.00,,---,0.00,VWS V14.01,2013-07-01 04:37:00,
2013-07-01 00:42:00,65.1,58.4,30.05,NNW,338,0.0,0.0,79,0.00,,---,0.00,VWS V14.01,2013-07-01 04:42:00,
2013-07-01 00:47:00,65.1,58.4,30.05,NNW,338,0.0,0.0,79,0.00,,---,0.00,VWS V14.01,2013-07-01 04:47:00,
2013-07-01 00:52:00,65.1,58.4,30.05,NNW,338,0.0,0.0,79,0.00,,---,0.00,VWS V14.01,2013-07-01 04:52:00,
2013-07-01 00:57:00,64.9,58.2,30.05,NNW,338,0.0,0.0,79,0.00,,---,0.00,VWS V14.01,2013-07-01 04:57:00,
2013-07-01 01:02:00,64.9,58.2,30.05,NNW,338,0.0,0.0,79,0.00,,---,0.00,VWS V14.01,2013-07-01 05:02:00,
2013-07-01 01:07:00,64.9,58.2,30.06,NNW,338,0.0,0.0,79,0.00,,---,0.00,VWS V14.01,2013-07-01 05:07:00,
2013-07-01 01:12:00,64.7,58.0,30.06,NNW,338,0.0,0.0,79,0.00,,---,0.00,VWS V14.01,2013-07-01 05:12:00,
2013-07-01 01:17:00,64.7,58.4,30.06,NNW,338,0.0,0.0,80,0.00,,---,0.00,VWS V14.01,2013-07-01 05:17:00,
2013-07-01 01:22:00,64.5,58.2,30.06,NNW,338,0.0,0.0,80,0.00,,---,0.00,VWS V14.01,2013-07-01 05:22:00,
2013-07-01 01:27:00,64.5,58.2,30.06,NNW,338,0.0,0.0,80,0.00,,---,0.00,VWS V14.01,2013-07-01 05:27:00,
2013-07-01 01:32:00,64.5,58.2,30.06,NNW,338,0.0,0.0,80,0.00,,---,0.00,VWS V14.01,2013-07-01 05:32:00,
2013-07-01 01:37:00,64.5,58.2,30.06,NNW,338,0.0,0.0,80,0.00,,---,0.00,VWS V14.01,2013-07-01 05:37:00,
2013-07-01 01:42:00,64.5,58.2,30.07,NNW,338,0.0,0.0,80,0.00,,---,0.00,VWS V14.01,2013-07-01 05:42:00,
2013-07-01 01:47:00,64.5,58.2,30.07,NNW,338,0.0,0.0,80,0.00,,---,0.00,VWS V14.01,2013-07-01 05:47:00,
2013-07-01 01:52:00,64.4,58.5,30.07,NNW,338,0.0,0.0,81,0.00,,---,0.00,VWS V14.01,2013-07-01 05:52:00,
2013-07-01 01:57:00,64.2,58.3,30.06,NNW,338,0.0,0.0,81,0.00,,---,0.00,VWS V14.01,2013-07-01 05:57:00,
2013-07-01 02:02:00,64.2,58.3,30.06,NNW,338,0.0,0.0,81,0.00,,---,0.00,VWS V14.01,2013-07-01 06:02:00,
2013-07-01 02:07:00,64.2,58.3,30.06,NNW,338,0.0,0.0,81,0.00,,---,0.00,VWS V14.01,2013-07-01 06:07:00,
2013-07-01 02:12:00,64.2,58.3,30.06,NNW,338,0.0,0.0,81,0.00,,---,0.00,VWS V14.01,2013-07-01 06:12:00,
2013-07-01 02:17:00,64.2,58.3,30.06,NNW,338,0.0,0.0,81,0.00,,---,0.00,VWS V14.01,2013-07-01 06:17:00,
2013-07-01 02:22:00,64.2,58.3,30.06,NNW,338,0.0,0.0,81,0.00,,---,0.00,VWS V14.01,2013-07-01 06:22:00,
2013-07-01 02:27:00,64.2,58.3,30.06,NNW,338,0.0,0.0,81,0.00,,---,0.00,VWS V14.01,2013-07-01 06:27:00,
2013-07-01 02:32:00,64.2,58.3,30.05,NNW,338,0.0,0.0,81,0.00,,---,0.00,VWS V14.01,2013-07-01 06:32:00,
2013-07-01 02:37:00,64.0,58.1,30.06,NNW,338,0.0,0.0,81,0.00,,---,0.00,VWS V14.01,2013-07-01 06:37:00,
2013-07-01 02:42:00,64.0,58.4,30.06,NNW,338,0.0,0.0,82,0.00,,---,0.00,VWS V14.01,2013-07-01 06:42:00,
2013-07-01 02:47:00,64.0,58.4,30.05,NNW,338,0.0,0.0,82,0.00,,---,0.00,VWS V14.01,2013-07-01 06:47:00,
2013-07-01 02:52:00,64.0,58.4,30.05,NNW,338,0.0,0.0,82,0.00,,---,0.00,VWS V14.01,2013-07-01 06:52:00,
2013-07-01 02:57:00,64.0,58.4,30.05,NNW,338,0.0,0.0,82,0.00,,---,0.00,VWS V14.01,2013-07-01 06:57:00,
2013-07-01 03:02:00,64.0,58.4,30.05,NNW,338,0.0,0.0,82,0.00,,---,0.00,VWS V14.01,2013-07-01 07:02:00,
2013-07-01 03:07:00,64.0,58.4,30.05,NNW,338,0.0,0.0,82,0.00,,---,0.00,VWS V14.01,2013-07-01 07:07:00,
2013-07-01 03:12:00,64.0,58.4,30.05,NNW,338,0.0,0.0,82,0.00,,---,0.00,VWS V14.01,2013-07-01 07:12:00,
2013-07-01 03:17:00,64.0,58.4,30.06,NNW,338,0.0,0.0,82,0.00,,---,0.00,VWS V14.01,2013-07-01 07:17:00,
2013-07-01 03:22:00,64.0,58.4,30.06,NNW,338,0.0,0.0,82,0.00,,---,0.00,VWS V14.01,2013-07-01 07:22:00,
2013-07-01 03:27:00,64.0,58.4,30.07,NNW,338,0.0,0.0,82,0.00,,---,0.00,VWS V14.01,2013-07-01 07:27:00,
2013-07-01 03:32:00,64.0,58.4,30.07,NNW,338,0.0,0.0,82,0.00,,---,0.00,VWS V14.01,2013-07-01 07:32:00,
2013-07-01 03:37:00,64.0,58.4,30.06,NNW,338,0.0,0.0,82,0.00,,---,0.00,VWS V14.01,2013-07-01 07:37:00,
2013-07-01 03:42:00,64.0,58.4,30.07,NNW,338,0.0,0.0,82,0.00,,---,0.00,VWS V14.01,2013-07-01 07:42:00,
2013-07-01 03:47:00,64.0,58.7,30.06,NNW,338,0.0,0.0,83,0.00,,---,0.00,VWS V14.01,2013-07-01 07:47:00,
2013-07-01 03:52:00,64.0,58.7,30.06,NNW,338,0.0,0.0,83,0.00,,---,0.00,VWS V14.01,2013-07-01 07:52:00,
2013-07-01 03:57:00,64.0,58.7,30.06,NNW,338,0.0,0.0,83,0.00,,---,0.00,VWS V14.01,2013-07-01 07:57:00,
2013-07-01 04:02:00,64.0,58.7,30.06,NNW,338,0.0,0.0,83,0.00,,---,0.00,VWS V14.01,2013-07-01 08:02:00,
2013-07-01 04:07:00,64.0,58.7,30.07,North,0,0.0,0.0,83,0.00,,---,0.00,VWS V14.01,2013-07-01 08:07:00,
2013-07-01 04:12:00,64.0,58.7,30.07,NNW,338,0.0,0.0,83,0.00,,---,0.00,VWS V14.01,2013-07-01 08:12:00,
2013-07-01 04:17:00,64.0,58.7,30.06,NNW,338,0.0,0.0,83,0.00,,---,0.00,VWS V14.01,2013-07-01 08:17:00,
2013-07-01 04:22:00,64.0,58.7,30.07,NNW,338,0.0,0.0,83,0.00,,---,0.00,VWS V14.01,2013-07-01 08:22:00,
2013-07-01 04:27:00,64.0,58.7,30.06,NNW,338,0.0,0.0,83,0.00,,---,0.00,VWS V14.01,2013-07-01 08:27:00,
2013-07-01 04:32:00,64.0,58.7,30.06,NNW,338,0.0,0.0,83,0.00,,---,0.00,VWS V14.01,2013-07-01 08:32:00,
2013-07-01 04:37:00,64.0,58.7,30.07,NNW,338,0.0,0.0,83,0.00,,---,0.00,VWS V14.01,2013-07-01 08:37:00,
2013-07-01 04:42:00,63.8,58.5,30.07,NNW,338,0.0,0.0,83,0.00,,---,0.00,VWS V14.01,2013-07-01 08:42:00,
2013-07-01 04:47:00,63.8,58.5,30.07,NNW,338,0.0,0.0,83,0.00,,---,0.00,VWS V14.01,2013-07-01 08:47:00,
2013-07-01 04:52:00,63.8,58.5,30.07,NNW,338,0.0,0.0,83,0.00,,---,0.00,VWS V14.01,2013-07-01 08:52:00,
2013-07-01 04:57:00,63.6,58.3,30.07,NNW,338,0.0,0.0,83,0.00,,---,0.00,VWS V14.01,2013-07-01 08:57:00,
2013-07-01 05:03:00,63.8,58.5,30.07,NNW,338,0.0,0.0,83,0.00,,---,0.00,VWS V14.01,2013-07-01 09:03:00,
2013-07-01 05:08:00,63.8,58.5,30.07,NNW,338,0.0,0.0,83,0.00,,---,0.00,VWS V14.01,2013-07-01 09:08:00,
2013-07-01 05:13:00,63.8,58.5,30.07,NNW,338,0.0,0.0,83,0.00,,---,0.00,VWS V14.01,2013-07-01 09:13:00,
2013-07-01 05:18:00,63.6,58.3,30.07,NNW,338,0.0,0.0,83,0.00,,---,0.00,VWS V14.01,2013-07-01 09:18:00,
2013-07-01 05:22:00,63.6,58.3,30.08,NNW,338,0.0,0.0,83,0.00,,---,0.00,VWS V14.01,2013-07-01 09:22:00,
2013-07-01 05:27:00,63.8,58.5,30.09,NNW,338,0.0,0.0,83,0.00,,---,0.00,VWS V14.01,2013-07-01 09:27:00,
2013-07-01 05:32:00,63.6,58.3,30.08,NNW,338,0.0,0.0,83,0.00,,---,0.00,VWS V14.01,2013-07-01 09:32:00,
2013-07-01 05:37:00,63.8,58.5,30.08,NNW,338,0.0,0.0,83,0.00,,---,0.00,VWS V14.01,2013-07-01 09:37:00,
2013-07-01 05:43:00,63.8,58.5,30.08,NNW,338,0.0,0.0,83,0.00,,---,0.00,VWS V14.01,2013-07-01 09:43:00,
2013-07-01 05:48:00,63.8,58.5,30.08,NNW,338,0.0,0.0,83,0.00,,---,0.00,VWS V14.01,2013-07-01 09:48:00,
2013-07-01 05:53:00,63.8,58.5,30.08,NNW,338,0.0,0.0,83,0.00,,---,0.00,VWS V14.01,2013-07-01 09:53:00,
2013-07-01 05:57:00,63.8,58.5,30.09,NNW,338,0.0,0.0,83,0.00,,---,0.00,VWS V14.01,2013-07-01 09:57:00,
2013-07-01 06:02:00,63.8,58.5,30.09,NNW,338,0.0,0.0,83,0.00,,---,0.00,VWS V14.01,2013-07-01 10:02:00,
2013-07-01 06:08:00,63.8,58.5,30.09,NNW,338,0.0,0.0,83,0.00,,---,0.00,VWS V14.01,2013-07-01 10:08:00,
2013-07-01 06:13:00,63.8,58.5,30.09,NNW,338,0.0,0.0,83,0.00,,---,0.00,VWS V14.01,2013-07-01 10:13:00,
2013-07-01 06:18:00,64.0,59.1,30.09,NNW,338,0.0,0.0,84,0.00,,---,0.19,VWS V14.01,2013-07-01 10:18:00,
2013-07-01 06:23:00,64.0,59.1,30.09,NNW,338,0.0,0.0,84,0.00,,---,0.00,VWS V14.01,2013-07-01 10:23:00,
2013-07-01 06:28:00,64.0,59.1,30.09,NNW,338,0.0,0.0,84,0.00,,---,0.00,VWS V14.01,2013-07-01 10:28:00,
2013-07-01 06:33:00,64.0,59.1,30.09,NNW,338,0.0,0.0,84,0.00,,---,0.00,VWS V14.01,2013-07-01 10:33:00,
2013-07-01 06:37:00,64.0,59.1,30.09,NNW,338,0.0,0.0,84,0.00,,---,0.00,VWS V14.01,2013-07-01 10:37:00,
2013-07-01 06:43:00,64.0,59.1,30.09,NNW,338,0.0,0.0,84,0.00,,---,0.00,VWS V14.01,2013-07-01 10:43:00,
2013-07-01 06:48:00,64.0,59.1,30.09,NNW,338,0.0,0.0,84,0.00,,---,0.00,VWS V14.01,2013-07-01 10:48:00,
2013-07-01 06:52:00,64.2,59.3,30.09,NNW,338,0.0,0.0,84,0.00,,---,0.00,VWS V14.01,2013-07-01 10:52:00,
2013-07-01 06:57:00,64.2,59.3,30.09,NNW,338,0.0,0.0,84,0.00,,---,0.00,VWS V14.01,2013-07-01 10:57:00,
2013-07-01 07:02:00,64.2,59.3,30.09,NNW,338,0.0,0.0,84,0.00,,---,0.00,VWS V14.01,2013-07-01 11:02:00,
2013-07-01 07:07:00,64.4,59.5,30.10,NNW,338,0.0,0.0,84,0.00,,---,0.00,VWS V14.01,2013-07-01 11:07:00,
2013-07-01 07:12:00,64.4,59.5,30.10,NNW,338,0.0,0.0,84,0.00,,---,0.00,VWS V14.01,2013-07-01 11:12:00,
2013-07-01 07:17:00,64.4,59.5,30.10,NNW,338,0.0,0.0,84,0.00,,---,0.00,VWS V14.01,2013-07-01 11:17:00,
2013-07-01 07:22:00,64.5,59.6,30.10,NNW,338,0.0,0.0,84,0.00,,---,0.00,VWS V14.01,2013-07-01 11:22:00,
2013-07-01 07:27:00,64.5,59.6,30.11,NNW,338,0.0,0.0,84,0.00,,---,0.00,VWS V14.01,2013-07-01 11:27:00,
2013-07-01 07:32:00,64.5,59.6,30.11,NNW,338,0.0,0.0,84,0.00,,---,0.00,VWS V14.01,2013-07-01 11:32:00,
2013-07-01 07:37:00,64.7,59.8,30.11,NNW,338,0.0,0.0,84,0.00,,---,0.00,VWS V14.01,2013-07-01 11:37:00,
2013-07-01 07:42:00,64.7,59.8,30.11,NNW,338,0.0,0.0,84,0.00,,---,0.00,VWS V14.01,2013-07-01 11:42:00,
2013-07-01 07:47:00,64.9,60.0,30.11,NNW,338,0.0,0.0,84,0.00,,---,0.00,VWS V14.01,2013-07-01 11:47:00,
2013-07-01 07:52:00,64.9,60.0,30.11,NNW,338,0.0,0.0,84,0.00,,---,0.00,VWS V14.01,2013-07-01 11:52:00,
2013-07-01 07:58:00,64.9,60.0,30.10,NNW,338,0.0,0.0,84,0.00,,---,0.00,VWS V14.01,2013-07-01 11:58:00,
2013-07-01 08:03:00,65.1,60.2,30.10,NNW,338,0.0,0.0,84,0.00,,---,0.00,VWS V14.01,2013-07-01 12:03:00,
2013-07-01 08:08:00,65.1,60.2,30.10,NNW,338,0.0,0.0,84,0.00,,---,0.00,VWS V14.01,2013-07-01 12:08:00,
2013-07-01 08:13:00,65.3,60.3,30.10,NNW,338,0.0,0.0,84,0.00,,---,0.00,VWS V14.01,2013-07-01 12:13:00,
2013-07-01 08:18:00,65.4,60.5,30.10,NNW,338,0.0,0.0,84,0.00,,---,0.00,VWS V14.01,2013-07-01 12:18:00,
2013-07-01 08:23:00,65.6,60.6,30.11,NNW,338,0.0,0.0,84,0.00,,---,0.00,VWS V14.01,2013-07-01 12:23:00,
2013-07-01 08:28:00,65.8,61.2,30.11,NNW,338,0.0,0.0,85,0.00,,---,0.00,VWS V14.01,2013-07-01 12:28:00,
2013-07-01 08:33:00,66.0,61.4,30.11,NNW,338,0.0,0.0,85,0.00,,---,0.00,VWS V14.01,2013-07-01 12:33:00,
2013-07-01 08:38:00,66.2,61.6,30.11,NNW,338,0.0,0.0,85,0.00,,---,0.00,VWS V14.01,2013-07-01 12:38:00,
2013-07-01 08:43:00,66.3,61.7,30.11,NNW,338,0.0,0.0,85,0.00,,---,0.00,VWS V14.01,2013-07-01 12:43:00,
2013-07-01 08:48:00,66.5,61.5,30.11,NNW,338,0.0,0.0,84,0.00,,---,0.00,VWS V14.01,2013-07-01 12:48:00,
2013-07-01 08:53:00,66.7,61.7,30.11,NNW,338,0.0,0.0,84,0.00,,---,0.00,VWS V14.01,2013-07-01 12:53:00,
2013-07-01 08:58:00,66.7,61.7,30.12,NNW,338,0.0,0.0,84,0.00,,---,0.00,VWS V14.01,2013-07-01 12:58:00,
2013-07-01 09:03:00,66.7,61.7,30.12,NNW,338,0.0,0.0,84,0.00,,---,0.00,VWS V14.01,2013-07-01 13:03:00,
2013-07-01 09:08:00,66.9,61.9,30.12,NNW,338,0.0,0.0,84,0.00,,---,0.00,VWS V14.01,2013-07-01 13:08:00,
2013-07-01 09:13:00,66.9,61.9,30.12,NNW,338,0.0,0.0,84,0.00,,---,0.00,VWS V14.01,2013-07-01 13:13:00,
2013-07-01 09:18:00,66.9,61.9,30.12,NNW,338,0.0,0.0,84,0.00,,---,0.00,VWS V14.01,2013-07-01 13:18:00,
2013-07-01 09:23:00,67.1,62.1,30.12,NNW,338,0.0,0.0,84,0.00,,---,0.00,VWS V14.01,2013-07-01 13:23:00,
2013-07-01 09:28:00,67.2,62.2,30.12,NW,315,0.0,0.0,84,0.00,,---,0.00,VWS V14.01,2013-07-01 13:28:00,
2013-07-01 09:33:00,67.2,62.2,30.12,NW,315,0.0,0.0,84,0.00,,---,0.00,VWS V14.01,2013-07-01 13:33:00,
2013-07-01 09:38:00,67.6,62.6,30.11,NW,315,0.0,0.0,84,0.00,,---,0.00,VWS V14.01,2013-07-01 13:38:00,
2013-07-01 09:43:00,67.6,62.6,30.12,ENE,68,0.0,0.0,84,0.00,,---,0.00,VWS V14.01,2013-07-01 13:43:00,
2013-07-01 09:49:00,67.8,62.8,30.11,ENE,68,0.0,0.0,84,0.00,,---,0.00,VWS V14.01,2013-07-01 13:49:00,
2013-07-01 09:54:00,67.8,62.5,30.12,ENE,68,0.0,0.0,83,0.00,,---,0.00,VWS V14.01,2013-07-01 13:54:00,
2013-07-01 09:59:00,68.0,62.7,30.12,SE,135,0.0,0.0,83,0.00,,---,0.19,VWS V14.01,2013-07-01 13:59:00,
2013-07-01 10:04:00,68.1,62.8,30.12,SSE,158,0.0,0.0,83,0.00,,---,0.00,VWS V14.01,2013-07-01 14:04:00,
2013-07-01 10:09:00,68.5,63.1,30.12,WNW,292,0.0,0.0,83,0.00,,---,0.00,VWS V14.01,2013-07-01 14:09:00,
2013-07-01 10:14:00,68.7,63.3,30.12,WNW,292,0.0,0.0,83,0.00,,---,0.00,VWS V14.01,2013-07-01 14:14:00,
2013-07-01 10:24:00,69.0,63.6,30.12,West,270,0.0,0.0,83,0.00,,---,0.00,VWS V14.01,2013-07-01 14:24:00,
2013-07-01 10:29:00,69.4,63.7,30.12,West,270,0.0,0.0,82,0.00,,---,0.00,VWS V14.01,2013-07-01 14:29:00,
2013-07-01 10:34:00,69.4,63.7,30.12,West,270,0.0,0.0,82,0.00,,---,0.00,VWS V14.01,2013-07-01 14:34:00,
2013-07-01 10:39:00,69.4,63.7,30.13,North,0,0.0,0.0,82,0.00,,---,0.00,VWS V14.01,2013-07-01 14:39:00,
2013-07-01 10:44:00,69.4,63.7,30.12,SSE,158,0.0,0.0,82,0.00,,---,0.00,VWS V14.01,2013-07-01 14:44:00,
2013-07-01 10:49:00,69.4,63.7,30.12,SSE,158,0.0,0.0,82,0.00,,---,0.00,VWS V14.01,2013-07-01 14:49:00,
2013-07-01 10:54:00,69.4,63.7,30.12,SW,225,0.0,0.0,82,0.00,,---,0.00,VWS V14.01,2013-07-01 14:54:00,
2013-07-01 10:59:00,69.4,63.7,30.12,SW,225,0.0,0.0,82,0.00,,---,0.19,VWS V14.01,2013-07-01 14:59:00,
2013-07-01 11:04:00,69.4,63.7,30.13,SW,225,0.0,0.0,82,0.00,,---,0.00,VWS V14.01,2013-07-01 15:04:00,
2013-07-01 11:09:00,69.4,63.7,30.13,SE,135,0.0,0.0,82,0.00,,---,0.00,VWS V14.01,2013-07-01 15:09:00,
2013-07-01 11:14:00,69.4,63.3,30.13,SE,135,0.0,0.0,81,0.00,,---,0.00,VWS V14.01,2013-07-01 15:14:00,
2013-07-01 11:19:00,69.6,63.5,30.13,SE,135,0.0,0.0,81,0.00,,---,0.00,VWS V14.01,2013-07-01 15:19:00,
2013-07-01 11:24:00,69.4,63.3,30.13,SE,135,0.0,0.0,81,0.00,,---,0.00,VWS V14.01,2013-07-01 15:24:00,
2013-07-01 11:29:00,69.6,63.5,30.13,SE,135,0.0,0.0,81,0.00,,---,0.00,VWS V14.01,2013-07-01 15:29:00,
2013-07-01 11:34:00,69.6,63.5,30.13,SE,135,0.0,0.0,81,0.00,,---,0.00,VWS V14.01,2013-07-01 15:34:00,
2013-07-01 11:39:00,69.6,63.5,30.13,SE,135,0.0,0.0,81,0.00,,---,0.00,VWS V14.01,2013-07-01 15:39:00,
2013-07-01 11:45:00,69.6,63.5,30.13,WNW,292,0.0,0.0,81,0.00,,---,0.00,VWS V14.01,2013-07-01 15:45:00,
2013-07-01 11:50:00,69.6,63.5,30.13,South,180,0.0,0.0,81,0.00,,---,0.00,VWS V14.01,2013-07-01 15:50:00,
2013-07-01 11:55:00,69.6,63.5,30.12,South,180,0.0,0.0,81,0.00,,---,0.00,VWS V14.01,2013-07-01 15:55:00,
2013-07-01 12:00:00,69.6,63.5,30.13,SW,225,0.0,0.0,81,0.00,,---,0.00,VWS V14.01,2013-07-01 16:00:00,
2013-07-01 12:05:00,69.6,63.5,30.12,SW,225,0.0,0.0,81,0.00,,---,0.00,VWS V14.01,2013-07-01 16:05:00,
2013-07-01 12:10:00,69.6,63.5,30.13,SW,225,0.0,0.0,81,0.00,,---,0.00,VWS V14.01,2013-07-01 16:10:00,
2013-07-01 12:15:00,69.6,63.5,30.13,SW,225,0.0,0.0,81,0.00,,---,0.00,VWS V14.01,2013-07-01 16:15:00,
2013-07-01 12:20:00,69.6,63.5,30.13,SW,225,0.0,0.0,81,0.00,,---,0.00,VWS V14.01,2013-07-01 16:20:00,
2013-07-01 12:25:00,69.6,63.5,30.13,SW,225,0.0,0.0,81,0.00,,---,0.00,VWS V14.01,2013-07-01 16:25:00,
2013-07-01 12:30:00,69.8,63.7,30.12,SW,225,0.0,0.0,81,0.00,,---,0.00,VWS V14.01,2013-07-01 16:30:00,
2013-07-01 12:35:00,69.6,63.5,30.13,SW,225,0.0,0.0,81,0.00,,---,0.00,VWS V14.01,2013-07-01 16:35:00,
2013-07-01 12:40:00,69.8,63.7,30.12,SW,225,0.0,0.0,81,0.00,,---,0.00,VWS V14.01,2013-07-01 16:40:00,
2013-07-01 12:45:00,69.8,63.7,30.12,West,270,0.0,0.0,81,0.00,,---,0.00,VWS V14.01,2013-07-01 16:45:00,
2013-07-01 12:50:00,69.6,63.5,30.12,West,270,0.0,0.0,81,0.00,,---,0.00,VWS V14.01,2013-07-01 16:50:00,
2013-07-01 12:55:00,69.8,63.7,30.13,SE,135,0.0,0.0,81,0.00,,---,0.00,VWS V14.01,2013-07-01 16:55:00,
2013-07-01 13:00:00,69.8,63.7,30.13,SE,135,0.0,0.0,81,0.00,,---,0.00,VWS V14.01,2013-07-01 17:00:00,
2013-07-01 13:05:00,69.8,63.7,30.12,WSW,248,0.0,0.0,81,0.00,,---,0.00,VWS V14.01,2013-07-01 17:05:00,
2013-07-01 13:10:00,69.8,63.7,30.12,WSW,248,0.0,0.0,81,0.00,,---,0.00,VWS V14.01,2013-07-01 17:10:00,
2013-07-01 13:15:00,69.9,63.5,30.12,SSE,158,0.0,0.0,80,0.00,,---,0.00,VWS V14.01,2013-07-01 17:15:00,
2013-07-01 13:20:00,69.9,63.5,30.13,South,180,0.0,0.0,80,0.00,,---,0.00,VWS V14.01,2013-07-01 17:20:00,
2013-07-01 13:25:00,69.9,63.5,30.12,South,180,0.0,0.0,80,0.00,,---,0.00,VWS V14.01,2013-07-01 17:25:00,
2013-07-01 13:30:00,69.9,63.5,30.13,SSE,158,0.0,0.0,80,0.00,,---,0.00,VWS V14.01,2013-07-01 17:30:00,
2013-07-01 13:35:00,69.9,63.5,30.13,SSE,158,0.0,0.0,80,0.00,,---,0.00,VWS V14.01,2013-07-01 17:35:00,
2013-07-01 13:40:00,70.1,63.7,30.13,SSE,158,0.0,0.0,80,0.00,,---,0.00,VWS V14.01,2013-07-01 17:40:00,
2013-07-01 13:45:00,70.1,63.7,30.13,SSE,158,0.0,0.0,80,0.00,,---,0.00,VWS V14.01,2013-07-01 17:45:00,
2013-07-01 13:50:00,69.9,63.5,30.12,West,270,0.0,0.0,80,0.00,,---,0.00,VWS V14.01,2013-07-01 17:50:00,
2013-07-01 13:55:00,69.9,63.5,30.13,West,270,0.0,0.0,80,0.00,,---,0.00,VWS V14.01,2013-07-01 17:55:00,
2013-07-01 14:00:00,69.6,63.2,30.13,ESE,112,0.0,0.0,80,0.00,,---,0.00,VWS V14.01,2013-07-01 18:00:00,
2013-07-01 14:05:00,69.6,63.2,30.14,SE,135,0.0,0.0,80,0.00,,---,0.00,VWS V14.01,2013-07-01 18:05:00,
2013-07-01 14:10:00,69.6,63.2,30.14,ESE,112,0.0,0.0,80,0.02,,---,0.02,VWS V14.01,2013-07-01 18:10:00,
2013-07-01 14:15:00,69.2,62.8,30.14,ESE,112,0.0,0.0,80,0.02,,---,0.02,VWS V14.01,2013-07-01 18:15:00,
2013-07-01 14:20:00,69.0,62.6,30.13,ESE,112,0.0,0.0,80,0.04,,---,0.04,VWS V14.01,2013-07-01 18:20:00,
2013-07-01 14:25:00,68.9,62.8,30.14,ESE,112,0.0,0.0,81,0.04,,---,0.04,VWS V14.01,2013-07-01 18:25:00,
2013-07-01 14:30:00,68.7,62.6,30.14,ESE,112,0.0,0.0,81,0.04,,---,0.04,VWS V14.01,2013-07-01 18:30:00,
2013-07-01 14:35:00,68.7,62.6,30.14,ESE,112,0.0,0.0,81,0.08,,---,0.08,VWS V14.01,2013-07-01 18:35:00,
2013-07-01 14:40:00,68.7,62.6,30.14,ESE,112,0.0,0.0,81,0.08,,---,0.08,VWS V14.01,2013-07-01 18:40:00,
2013-07-01 14:45:00,68.5,62.5,30.14,ESE,112,0.0,0.0,81,0.19,,---,0.19,VWS V14.01,2013-07-01 18:45:00,
2013-07-01 14:50:00,68.3,62.2,30.14,ESE,112,0.0,0.0,81,0.26,,---,0.26,VWS V14.01,2013-07-01 18:50:00,
2013-07-01 14:55:00,68.1,62.4,30.14,ESE,112,0.0,0.0,82,0.28,,---,0.28,VWS V14.01,2013-07-01 18:55:00,
2013-07-01 15:00:00,68.0,62.3,30.13,ESE,112,0.0,0.0,82,0.28,,---,0.28,VWS V14.01,2013-07-01 19:00:00,
2013-07-01 15:05:00,68.0,62.3,30.14,ESE,112,0.0,0.0,82,0.31,,---,0.31,VWS V14.01,2013-07-01 19:05:00,
2013-07-01 15:10:00,67.8,62.1,30.14,ESE,112,0.0,0.0,82,0.29,,---,0.31,VWS V14.01,2013-07-01 19:10:00,
2013-07-01 15:15:00,67.8,62.1,30.14,ESE,112,0.0,0.0,82,0.29,,---,0.31,VWS V14.01,2013-07-01 19:15:00,
2013-07-01 15:20:00,67.8,62.5,30.14,ESE,112,0.0,0.0,83,0.27,,---,0.31,VWS V14.01,2013-07-01 19:20:00,
2013-07-01 15:25:00,67.8,62.5,30.14,ESE,112,0.0,0.0,83,0.27,,---,0.31,VWS V14.01,2013-07-01 19:25:00,
2013-07-01 15:30:00,67.8,62.5,30.14,ESE,112,0.0,0.0,83,0.27,,---,0.31,VWS V14.01,2013-07-01 19:30:00,
2013-07-01 15:35:00,67.8,62.5,30.14,ESE,112,0.0,0.0,83,0.22,,---,0.31,VWS V14.01,2013-07-01 19:35:00,
2013-07-01 15:40:00,67.8,62.5,30.14,ESE,112,0.0,0.0,83,0.22,,---,0.31,VWS V14.01,2013-07-01 19:40:00,
2013-07-01 15:45:00,67.8,62.5,30.14,ESE,112,0.0,0.0,83,0.12,,---,0.31,VWS V14.01,2013-07-01 19:45:00,
2013-07-01 15:50:00,67.8,62.5,30.14,ESE,112,0.0,0.0,83,0.04,,---,0.31,VWS V14.01,2013-07-01 19:50:00,
2013-07-01 15:55:00,67.8,62.8,30.14,ESE,112,0.0,0.0,84,0.02,,---,0.31,VWS V14.01,2013-07-01 19:55:00,
2013-07-01 16:00:00,67.8,62.8,30.14,ESE,112,0.0,0.0,84,0.02,,---,0.31,VWS V14.01,2013-07-01 20:00:00,
2013-07-01 16:05:00,67.8,62.8,30.14,ESE,112,0.0,0.0,84,0.00,,---,0.31,VWS V14.01,2013-07-01 20:05:00,
2013-07-01 16:10:00,67.8,62.8,30.14,ESE,112,0.0,0.0,84,0.00,,---,0.31,VWS V14.01,2013-07-01 20:10:00,
2013-07-01 16:15:00,67.8,62.8,30.14,ESE,112,0.0,0.0,84,0.00,,---,0.31,VWS V14.01,2013-07-01 20:15:00,
2013-07-01 16:20:00,67.8,62.8,30.14,ESE,112,0.0,0.0,84,0.02,,---,0.33,VWS V14.01,2013-07-01 20:20:00,
2013-07-01 16:25:00,67.8,62.8,30.14,ESE,112,0.0,0.0,84,0.06,,---,0.37,VWS V14.01,2013-07-01 20:25:00,
2013-07-01 16:30:00,67.8,62.8,30.14,ESE,112,0.0,0.0,84,0.08,,---,0.39,VWS V14.01,2013-07-01 20:30:00,
2013-07-01 16:35:00,67.8,62.8,30.14,ESE,112,0.0,0.0,84,0.10,,---,0.41,VWS V14.01,2013-07-01 20:35:00,
2013-07-01 16:40:00,67.6,62.6,30.14,ESE,112,0.0,0.0,84,0.10,,---,0.41,VWS V14.01,2013-07-01 20:40:00,
2013-07-01 16:45:00,67.6,62.6,30.14,ESE,112,0.0,0.0,84,0.10,,---,0.41,VWS V14.01,2013-07-01 20:45:00,
2013-07-01 16:50:00,67.4,62.4,30.14,ESE,112,0.0,0.0,84,0.12,,---,0.43,VWS V14.01,2013-07-01 20:50:00,
2013-07-01 16:55:00,67.2,62.2,30.14,ESE,112,0.0,0.0,84,0.14,,---,0.45,VWS V14.01,2013-07-01 20:55:00,
2013-07-01 17:00:00,67.2,62.2,30.14,ESE,112,0.0,0.0,84,0.16,,---,0.47,VWS V14.01,2013-07-01 21:00:00,
2013-07-01 17:05:00,67.2,62.2,30.14,ESE,112,0.0,0.0,84,0.16,,---,0.47,VWS V14.01,2013-07-01 21:05:00,
2013-07-01 17:10:00,67.2,62.2,30.13,ESE,112,0.0,0.0,84,0.18,,---,0.49,VWS V14.01,2013-07-01 21:10:00,
2013-07-01 17:15:00,67.1,62.1,30.13,ESE,112,0.0,0.0,84,0.18,,---,0.49,VWS V14.01,2013-07-01 21:15:00,
2013-07-01 17:20:00,66.9,61.9,30.13,ESE,112,0.0,0.0,84,0.18,,---,0.51,VWS V14.01,2013-07-01 21:20:00,
2013-07-01 17:25:00,66.9,61.9,30.12,ESE,112,0.0,0.0,84,0.14,,---,0.51,VWS V14.01,2013-07-01 21:25:00,
2013-07-01 17:30:00,66.7,61.7,30.12,ESE,112,0.0,0.0,84,0.12,,---,0.51,VWS V14.01,2013-07-01 21:30:00,
2013-07-01 17:35:00,66.7,61.7,30.12,ESE,112,0.0,0.0,84,0.13,,---,0.53,VWS V14.01,2013-07-01 21:35:00,
2013-07-01 17:40:00,66.7,61.7,30.12,ESE,112,0.0,0.0,84,0.13,,---,0.53,VWS V14.01,2013-07-01 21:40:00,
2013-07-01 17:45:00,66.7,61.7,30.12,ESE,112,0.0,0.0,84,0.13,,---,0.53,VWS V14.01,2013-07-01 21:45:00,
2013-07-01 17:50:00,66.5,61.5,30.12,ESE,112,0.0,0.0,84,0.10,,---,0.53,VWS V14.01,2013-07-01 21:50:00,
2013-07-01 17:55:00,66.3,61.3,30.12,ESE,112,0.0,0.0,84,0.08,,---,0.53,VWS V14.01,2013-07-01 21:55:00,
2013-07-01 18:00:00,66.3,61.3,30.12,ESE,112,0.0,0.0,84,0.08,,---,0.55,VWS V14.01,2013-07-01 22:00:00,
2013-07-01 18:05:00,66.2,61.2,30.12,ESE,112,0.0,0.0,84,0.08,,---,0.55,VWS V14.01,2013-07-01 22:05:00,
2013-07-01 18:10:00,66.2,61.2,30.12,ESE,112,0.0,0.0,84,0.06,,---,0.55,VWS V14.01,2013-07-01 22:10:00,
2013-07-01 18:15:00,66.0,61.4,30.12,ESE,112,0.0,0.0,85,0.06,,---,0.55,VWS V14.01,2013-07-01 22:15:00,
2013-07-01 18:20:00,66.0,61.4,30.12,ESE,112,0.0,0.0,85,0.04,,---,0.55,VWS V14.01,2013-07-01 22:20:00,
2013-07-01 18:25:00,66.0,61.4,30.12,ESE,112,0.0,0.0,85,0.04,,---,0.55,VWS V14.01,2013-07-01 22:25:00,
2013-07-01 18:30:00,66.0,61.4,30.12,ESE,112,0.0,0.0,85,0.04,,---,0.55,VWS V14.01,2013-07-01 22:30:00,
2013-07-01 18:35:00,66.0,61.4,30.12,ESE,112,0.0,0.0,85,0.02,,---,0.55,VWS V14.01,2013-07-01 22:35:00,
2013-07-01 18:40:00,66.0,61.4,30.12,ESE,112,0.0,0.0,85,0.02,,---,0.55,VWS V14.01,2013-07-01 22:40:00,
2013-07-01 18:45:00,66.0,61.4,30.13,ESE,112,0.0,0.0,85,0.04,,---,0.57,VWS V14.01,2013-07-01 22:45:00,
2013-07-01 18:50:00,66.0,61.4,30.12,ESE,112,0.0,0.0,85,0.04,,---,0.57,VWS V14.01,2013-07-01 22:50:00,
2013-07-01 18:55:00,66.0,61.4,30.13,ESE,112,0.0,0.0,85,0.04,,---,0.57,VWS V14.01,2013-07-01 22:55:00,
2013-07-01 19:00:00,65.6,61.0,30.13,ESE,112,0.0,0.0,85,0.04,,---,0.59,VWS V14.01,2013-07-01 23:00:00,
2013-07-01 19:05:00,65.4,60.8,30.14,ESE,112,0.0,0.0,85,0.04,,---,0.59,VWS V14.01,2013-07-01 23:05:00,
2013-07-01 19:10:00,65.4,60.8,30.13,ESE,112,0.0,0.0,85,0.06,,---,0.61,VWS V14.01,2013-07-01 23:10:00,
2013-07-01 19:15:00,65.4,60.8,30.13,ESE,112,0.0,0.0,85,0.08,,---,0.63,VWS V14.01,2013-07-01 23:15:00,
2013-07-01 19:20:00,65.4,60.8,30.13,ESE,112,0.0,0.0,85,0.10,,---,0.65,VWS V14.01,2013-07-01 23:20:00,
2013-07-01 19:25:00,65.3,60.7,30.13,ESE,112,0.0,0.0,85,0.12,,---,0.67,VWS V14.01,2013-07-01 23:25:00,
2013-07-01 19:30:00,65.3,60.7,30.13,ESE,112,0.0,0.0,85,0.14,,---,0.69,VWS V14.01,2013-07-01 23:30:00,
2013-07-01 19:35:00,65.1,60.5,30.13,ESE,112,0.0,0.0,85,0.16,,---,0.71,VWS V14.01,2013-07-01 23:35:00,
2013-07-01 19:40:00,65.1,60.5,30.13,ESE,112,0.0,0.0,85,0.16,,---,0.71,VWS V14.01,2013-07-01 23:40:00,
2013-07-01 19:45:00,65.1,60.5,30.14,SE,135,0.0,0.0,85,0.16,,---,0.73,VWS V14.01,2013-07-01 23:45:00,
2013-07-01 19:50:00,65.1,60.5,30.14,SE,135,0.0,0.0,85,0.16,,---,0.73,VWS V14.01,2013-07-01 23:50:00,
2013-07-01 19:55:00,65.1,60.5,30.14,SE,135,0.0,0.0,85,0.16,,---,0.73,VWS V14.01,2013-07-01 23:55:00,
2013-07-01 20:00:00,64.9,60.3,30.14,SE,135,0.0,0.0,85,0.19,,---,0.78,VWS V14.01,2013-07-02 00:00:00,
2013-07-01 20:05:00,64.9,60.6,30.14,SE,135,0.0,0.0,86,0.20,,---,0.80,VWS V14.01,2013-07-02 00:05:00,
2013-07-01 20:10:00,64.9,60.6,30.14,SE,135,0.0,0.0,86,0.22,,---,0.83,VWS V14.01,2013-07-02 00:10:00,
2013-07-01 20:15:00,64.9,60.6,30.15,SE,135,0.0,0.0,86,0.25,,---,0.88,VWS V14.01,2013-07-02 00:15:00,
2013-07-01 20:20:00,64.7,60.4,30.15,SE,135,0.0,0.0,86,0.24,,---,0.90,VWS V14.01,2013-07-02 00:20:00,
2013-07-01 20:25:00,64.7,60.4,30.15,SE,135,0.0,0.0,86,0.24,,---,0.92,VWS V14.01,2013-07-02 00:25:00,
2013-07-01 20:30:00,64.5,60.2,30.15,SE,135,0.0,0.0,86,0.24,,---,0.94,VWS V14.01,2013-07-02 00:30:00,
2013-07-01 20:35:00,64.5,60.2,30.15,ESE,112,0.0,0.0,86,0.24,,---,0.96,VWS V14.01,2013-07-02 00:35:00,
2013-07-01 20:40:00,64.4,60.1,30.15,ESE,112,0.0,0.0,86,0.24,,---,0.96,VWS V14.01,2013-07-02 00:40:00,
2013-07-01 20:45:00,64.2,59.9,30.15,ESE,112,0.0,0.0,86,0.22,,---,0.96,VWS V14.01,2013-07-02 00:45:00,
2013-07-01 20:50:00,64.2,59.9,30.15,ESE,112,0.0,0.0,86,0.22,,---,0.96,VWS V14.01,2013-07-02 00:50:00,
2013-07-01 20:55:00,64.0,59.7,30.15,ESE,112,0.0,0.0,86,0.25,,---,0.98,VWS V14.01,2013-07-02 00:55:00,
2013-07-01 21:00:00,64.0,59.7,30.15,ESE,112,0.0,0.0,86,0.22,,---,1.00,VWS V14.01,2013-07-02 01:00:00,
2013-07-01 21:05:00,63.8,59.5,30.15,ESE,112,0.0,0.0,86,0.20,,---,1.00,VWS V14.01,2013-07-02 01:05:00,
2013-07-01 21:10:00,63.6,59.3,30.15,ESE,112,0.0,0.0,86,0.19,,---,1.02,VWS V14.01,2013-07-02 01:10:00,
2013-07-01 21:15:00,63.6,59.3,30.16,ESE,112,0.0,0.0,86,0.14,,---,1.02,VWS V14.01,2013-07-02 01:15:00,
2013-07-01 21:20:00,63.5,59.2,30.16,ESE,112,0.0,0.0,86,0.14,,---,1.04,VWS V14.01,2013-07-02 01:20:00,
2013-07-01 21:25:00,63.5,59.2,30.16,ESE,112,0.0,0.0,86,0.20,,---,1.12,VWS V14.01,2013-07-02 01:25:00,
2013-07-01 21:30:00,63.3,59.0,30.16,ESE,112,0.0,0.0,86,0.27,,---,1.20,VWS V14.01,2013-07-02 01:30:00,
2013-07-01 21:35:00,63.3,59.0,30.16,ESE,112,0.0,0.0,86,0.31,,---,1.26,VWS V14.01,2013-07-02 01:35:00,
2013-07-01 21:40:00,63.1,58.8,30.16,ESE,112,0.0,0.0,86,0.31,,---,1.26,VWS V14.01,2013-07-02 01:40:00,
2013-07-01 21:45:00,63.1,58.8,30.16,ESE,112,0.0,0.0,86,0.33,,---,1.28,VWS V14.01,2013-07-02 01:45:00,
2013-07-01 21:50:00,62.9,58.7,30.17,ESE,112,0.0,0.0,86,0.33,,---,1.28,VWS V14.01,2013-07-02 01:50:00,
2013-07-01 21:55:00,62.7,58.5,30.16,ESE,112,0.0,0.0,86,0.32,,---,1.30,VWS V14.01,2013-07-02 01:55:00,
2013-07-01 22:00:00,62.7,58.5,30.16,ESE,112,0.0,0.0,86,0.30,,---,1.30,VWS V14.01,2013-07-02 02:00:00,
2013-07-01 22:05:00,62.4,58.2,30.17,ESE,112,0.0,0.0,86,0.30,,---,1.30,VWS V14.01,2013-07-02 02:05:00,
2013-07-01 23:21:00,61.5,57.6,30.17,NW,315,0.0,0.0,87,0.17,,---,1.47,VWS V14.01,2013-07-02 03:21:00,
2013-07-01 23:26:00,61.5,57.6,30.17,NW,315,0.0,0.0,87,0.16,,---,1.49,VWS V14.01,2013-07-02 03:26:00,
2013-07-01 23:31:00,61.3,57.4,30.16,NW,315,0.0,0.0,87,0.18,,---,1.51,VWS V14.01,2013-07-02 03:31:00,
2013-07-01 23:36:00,61.3,57.4,30.17,NW,315,0.0,0.0,87,0.18,,---,1.53,VWS V14.01,2013-07-02 03:36:00,
2013-07-01 23:41:00,61.3,57.4,30.17,NW,315,0.0,0.0,87,0.18,,---,1.53,VWS V14.01,2013-07-02 03:41:00,
2013-07-01 23:46:00,61.1,57.2,30.17,NW,315,0.0,0.0,87,0.20,,---,1.55,VWS V14.01,2013-07-02 03:46:00,
2013-07-01 23:51:00,61.1,57.2,30.16,NW,315,0.0,0.0,87,0.20,,---,1.55,VWS V14.01,2013-07-02 03:51:00,
2013-07-01 23:56:00,61.1,57.2,30.16,NW,315,0.0,0.0,87,0.20,,---,1.57,VWS V14.01,2013-07-02 03:56:00,